createdAt,value
2022-09-25T00:01:04.702Z,23.73
2022-09-25T00:03:32.144Z,22.93
2022-09-25T00:06:04.301Z,23.93
2022-09-25T00:08:31.677Z,23.27
2022-09-25T00:11:00.352Z,25.37
2022-09-25T00:13:27.571Z,23.80
2022-09-25T00:15:56.381Z,23.90
2022-09-25T00:18:43.625Z,24.23
2022-09-25T00:21:12.995Z,24.57
2022-09-25T00:23:42.356Z,23.87
2022-09-25T00:26:11.487Z,23.97
2022-09-25T00:28:40.734Z,24.63
2022-09-25T00:31:08.975Z,23.43
2022-09-25T00:33:37.047Z,23.40
2022-09-25T00:36:06.901Z,23.63
2022-09-25T00:38:35.099Z,24.53
2022-09-25T00:41:02.413Z,23.30
2022-09-25T00:43:39.508Z,23.30
2022-09-25T00:46:12.539Z,24.07
2022-09-25T00:48:45.984Z,23.57
2022-09-25T00:51:14.980Z,25.03
2022-09-25T00:53:42.137Z,23.43
2022-09-25T00:56:12.288Z,25.57
2022-09-25T00:58:42.064Z,25.83
2022-09-25T01:01:09.857Z,26.07
2022-09-25T01:03:37.354Z,24.33
2022-09-25T01:06:04.746Z,25.40
2022-09-25T01:12:19.287Z,25.93
2022-09-25T01:14:47.818Z,25.27
2022-09-25T01:17:19.858Z,25.93
2022-09-25T01:20:02.752Z,24.73
2022-09-25T01:22:43.555Z,24.47
2022-09-25T01:25:16.409Z,25.40
2022-09-25T01:28:04.313Z,25.33
2022-09-25T01:30:36.885Z,24.23
2022-09-25T01:33:07.981Z,24.87
2022-09-25T01:35:42.775Z,23.80
2022-09-25T01:38:21.045Z,24.70
2022-09-25T01:40:56.847Z,24.17
2022-09-25T01:43:27.863Z,24.43
2022-09-25T01:46:00.351Z,24.83
2022-09-25T01:48:31.019Z,23.63
2022-09-25T01:51:20.013Z,23.37
2022-09-25T01:53:51.517Z,22.47
2022-09-25T01:56:26.171Z,23.00
2022-09-25T01:58:57.690Z,23.03
2022-09-25T02:01:32.349Z,22.63
2022-09-25T02:04:05.239Z,23.13
2022-09-25T02:06:33.709Z,22.37
2022-09-25T02:09:04.637Z,23.27
2022-09-25T02:11:35.783Z,22.37
2022-09-25T02:14:07.729Z,23.40
2022-09-25T02:16:39.096Z,22.33
2022-09-25T02:19:25.139Z,21.37
2022-09-25T02:21:59.819Z,22.63
2022-09-25T02:24:34.317Z,22.03
2022-09-25T02:27:01.140Z,22.17
2022-09-25T02:29:28.085Z,22.37
2022-09-25T02:31:59.749Z,22.20
2022-09-25T02:34:27.219Z,22.20
2022-09-25T02:36:54.088Z,22.20
2022-09-25T02:39:24.933Z,22.37
2022-09-25T02:42:05.667Z,22.43
2022-09-25T02:44:42.924Z,22.20
2022-09-25T02:47:22.405Z,21.90
2022-09-25T02:49:56.010Z,22.47
2022-09-25T02:52:28.098Z,22.57
2022-09-25T02:54:59.727Z,22.80
2022-09-25T02:57:33.555Z,21.83
2022-09-25T03:00:04.688Z,22.00
2022-09-25T03:02:35.085Z,22.13
2022-09-25T03:05:03.992Z,22.67
2022-09-25T03:07:51.342Z,22.90
2022-09-25T03:10:19.182Z,24.20
2022-09-25T03:12:45.965Z,23.43
2022-09-25T03:15:13.789Z,23.50
2022-09-25T03:17:42.297Z,23.67
2022-09-25T03:20:10.402Z,23.83
2022-09-25T03:22:37.654Z,24.37
2022-09-25T03:25:05.743Z,25.10
2022-09-25T03:27:32.548Z,24.23
2022-09-25T03:29:59.751Z,24.43
2022-09-25T03:32:26.536Z,25.50
2022-09-25T03:34:54.693Z,24.93
2022-09-25T03:37:21.453Z,25.27
2022-09-25T03:39:48.585Z,24.07
2022-09-25T03:42:15.437Z,24.03
2022-09-25T03:44:43.368Z,24.07
2022-09-25T03:47:10.189Z,23.83
2022-09-25T03:49:37.334Z,22.97
2022-09-25T03:52:05.399Z,24.07
2022-09-25T03:54:32.138Z,22.70
2022-09-25T03:56:58.894Z,21.80
2022-09-25T03:59:26.700Z,22.37
2022-09-25T04:01:53.845Z,21.20
2022-09-25T04:04:21.256Z,21.47
2022-09-25T04:06:48.079Z,21.13
2022-09-25T04:09:16.895Z,19.40
2022-09-25T04:11:45.373Z,19.50
2022-09-25T04:14:12.514Z,19.20
2022-09-25T04:16:39.812Z,18.57
2022-09-25T04:19:06.888Z,19.23
2022-09-25T04:21:33.744Z,19.90
2022-09-25T04:24:19.895Z,19.03
2022-09-25T04:26:48.276Z,19.07
2022-09-25T04:29:15.257Z,19.43
2022-09-25T04:31:42.655Z,20.17
2022-09-25T04:34:09.526Z,20.10
2022-09-25T04:36:36.784Z,19.77
2022-09-25T04:39:03.645Z,20.30
2022-09-25T04:41:30.460Z,21.53
2022-09-25T04:43:58.642Z,21.70
2022-09-25T04:46:25.599Z,21.60
2022-09-25T04:48:52.557Z,21.50
2022-09-25T04:51:19.573Z,24.73
2022-09-25T04:53:46.670Z,23.40
2022-09-25T04:56:15.937Z,26.20
2022-09-25T04:58:46.097Z,27.37
2022-09-25T05:01:14.827Z,27.30
2022-09-25T05:03:41.867Z,27.63
2022-09-25T05:06:09.138Z,29.63
2022-09-25T05:08:35.900Z,29.40
2022-09-25T05:11:04.234Z,30.50
2022-09-25T05:13:31.001Z,31.83
2022-09-25T05:15:58.354Z,33.93
2022-09-25T05:18:26.778Z,32.63
2022-09-25T05:20:54.599Z,33.40
2022-09-25T05:23:21.691Z,33.13
2022-09-25T05:25:53.134Z,33.13
2022-09-25T05:28:19.898Z,34.67
2022-09-25T05:30:47.517Z,35.77
2022-09-25T05:33:14.407Z,36.40
2022-09-25T05:35:42.850Z,35.10
2022-09-25T05:38:09.642Z,36.73
2022-09-25T05:40:39.424Z,36.93
2022-09-25T05:43:06.746Z,38.23
2022-09-25T05:45:35.348Z,39.13
2022-09-25T05:48:03.279Z,40.87
2022-09-25T05:50:32.681Z,39.73
2022-09-25T05:53:02.445Z,39.93
2022-09-25T05:55:29.653Z,41.93
2022-09-25T05:58:00.521Z,42.90
2022-09-25T06:00:28.440Z,42.47
2022-09-25T06:02:55.346Z,44.03
2022-09-25T06:05:22.724Z,42.37
2022-09-25T06:07:53.321Z,43.43
2022-09-25T06:10:26.446Z,43.17
2022-09-25T06:12:58.593Z,45.23
2022-09-25T06:15:28.237Z,43.70
2022-09-25T06:17:55.737Z,44.10
2022-09-25T06:20:22.962Z,43.17
2022-09-25T06:22:53.104Z,44.37
2022-09-25T06:25:23.197Z,43.30
2022-09-25T06:27:52.436Z,43.57
2022-09-25T06:30:19.960Z,44.87
2022-09-25T06:32:46.804Z,44.27
2022-09-25T06:35:15.001Z,44.73
2022-09-25T06:37:41.811Z,43.27
2022-09-25T06:40:09.973Z,42.80
2022-09-25T06:42:38.980Z,39.87
2022-09-25T06:45:07.021Z,37.80
2022-09-25T06:47:33.879Z,38.10
2022-09-25T06:50:01.193Z,35.93
2022-09-25T06:52:28.031Z,35.87
2022-09-25T06:54:55.273Z,34.93
2022-09-25T06:57:22.185Z,31.40
2022-09-25T06:59:50.837Z,30.87
2022-09-25T07:02:36.297Z,29.13
2022-09-25T07:05:03.819Z,27.23
2022-09-25T07:07:31.544Z,28.50
2022-09-25T07:09:58.763Z,26.03
2022-09-25T07:12:25.573Z,26.93
2022-09-25T07:14:54.275Z,27.83
2022-09-25T07:17:21.099Z,27.43
2022-09-25T07:19:48.807Z,29.00
2022-09-25T07:22:15.643Z,26.00
2022-09-25T07:24:42.941Z,24.73
2022-09-25T07:27:09.779Z,22.80
2022-09-25T07:29:37.154Z,22.60
2022-09-25T07:32:05.781Z,21.23
2022-09-25T07:34:36.524Z,19.30
2022-09-25T07:37:03.626Z,20.30
2022-09-25T07:39:30.854Z,19.63
2022-09-25T07:41:57.674Z,21.77
2022-09-25T07:44:29.106Z,22.27
2022-09-25T07:46:57.487Z,20.87
2022-09-25T07:49:26.041Z,21.40
2022-09-25T07:51:52.874Z,20.73
2022-09-25T07:54:20.248Z,20.43
2022-09-25T07:56:47.098Z,20.80
2022-09-25T07:59:14.403Z,20.57
2022-09-25T08:01:44.846Z,20.03
2022-09-25T08:04:14.530Z,19.70
2022-09-25T08:06:42.752Z,17.87
2022-09-25T08:09:12.453Z,17.63
2022-09-25T08:11:39.437Z,16.80
2022-09-25T08:14:06.293Z,16.07
2022-09-25T08:16:33.163Z,17.37
2022-09-25T08:19:00.063Z,16.47
2022-09-25T08:21:27.111Z,14.67
2022-09-25T08:23:56.795Z,13.67
2022-09-25T08:26:23.656Z,12.73
2022-09-25T08:28:52.424Z,12.13
2022-09-25T08:31:19.424Z,12.20
2022-09-25T08:33:47.520Z,11.83
2022-09-25T08:36:16.088Z,11.10
2022-09-25T08:38:43.067Z,12.40
2022-09-25T08:41:17.331Z,12.03
2022-09-25T08:43:52.871Z,12.23
2022-09-25T08:46:44.416Z,12.17
2022-09-25T08:49:14.256Z,12.00
2022-09-25T08:51:44.126Z,12.83
2022-09-25T08:54:18.555Z,12.83
2022-09-25T08:56:49.892Z,13.33
2022-09-25T08:59:26.470Z,14.17
2022-09-25T09:02:03.011Z,13.03
2022-09-25T09:04:37.949Z,13.77
2022-09-25T09:07:26.772Z,13.70
2022-09-25T09:10:04.841Z,12.73
2022-09-25T09:12:49.755Z,12.83
2022-09-25T09:15:32.172Z,14.60
2022-09-25T09:18:09.971Z,14.40
2022-09-25T09:20:47.720Z,14.80
2022-09-25T09:23:24.891Z,15.80
2022-09-25T09:26:08.640Z,16.40
2022-09-25T09:29:07.369Z,16.23
2022-09-25T09:31:47.506Z,15.70
2022-09-25T09:35:00.997Z,16.47
2022-09-25T09:37:36.205Z,15.57
2022-09-25T09:40:30.828Z,14.93
2022-09-25T09:43:07.762Z,14.17
2022-09-25T09:45:47.367Z,12.63
2022-09-25T09:48:29.785Z,13.93
2022-09-25T09:51:08.223Z,13.03
2022-09-25T09:53:57.046Z,12.97
2022-09-25T09:56:36.148Z,11.40
2022-09-25T09:59:07.042Z,11.10
2022-09-25T10:01:42.081Z,12.50
2022-09-25T10:04:38.831Z,11.23
2022-09-25T10:07:17.307Z,11.67
2022-09-25T10:09:47.079Z,10.83
2022-09-25T10:12:39.067Z,9.97
2022-09-25T10:15:22.760Z,10.07
2022-09-25T10:18:01.819Z,9.70
2022-09-25T10:20:43.457Z,10.03
2022-09-25T10:23:33.173Z,9.73
2022-09-25T10:26:11.084Z,10.40
2022-09-25T10:28:51.900Z,10.33
2022-09-25T10:31:25.530Z,13.10
2022-09-25T10:34:18.534Z,13.60
2022-09-25T10:36:48.342Z,14.57
2022-09-25T10:39:44.213Z,16.30
2022-09-25T10:42:36.303Z,17.20
2022-09-25T10:45:26.793Z,16.40
2022-09-25T10:48:12.382Z,18.23
2022-09-25T10:50:41.582Z,17.77
2022-09-25T10:53:28.235Z,17.93
2022-09-25T10:56:02.110Z,17.27
2022-09-25T10:58:35.970Z,15.20
2022-09-25T11:01:04.853Z,13.90
2022-09-25T11:03:34.377Z,14.17
2022-09-25T11:06:05.589Z,14.80
2022-09-25T11:08:35.255Z,15.13
2022-09-25T11:11:03.379Z,15.77
2022-09-25T11:13:38.207Z,15.63
2022-09-25T11:16:11.214Z,15.37
2022-09-25T11:18:41.229Z,15.60
2022-09-25T11:21:21.342Z,15.67
2022-09-25T11:24:06.831Z,14.63
2022-09-25T11:26:38.484Z,13.87
2022-09-25T11:29:14.638Z,15.80
2022-09-25T11:31:45.148Z,13.77
2022-09-25T11:34:21.385Z,14.33
2022-09-25T11:37:05.125Z,13.20
2022-09-25T11:40:07.391Z,13.30
2022-09-25T11:42:40.862Z,13.60
2022-09-25T11:45:20.763Z,13.53
2022-09-25T11:48:02.601Z,13.17
2022-09-25T11:50:43.847Z,11.90
2022-09-25T11:53:25.868Z,12.70
2022-09-25T11:56:18.534Z,11.23
2022-09-25T11:59:09.989Z,12.57
2022-09-25T12:01:52.014Z,13.70
2022-09-25T12:04:59.260Z,13.43
2022-09-25T12:07:53.893Z,13.60
2022-09-25T12:10:46.255Z,12.63
2022-09-25T12:13:30.240Z,11.37
2022-09-25T12:16:15.692Z,11.30
2022-09-25T12:19:03.182Z,9.90
2022-09-25T12:21:38.181Z,9.97
2022-09-25T12:24:15.560Z,10.27
2022-09-25T12:26:53.052Z,10.40
2022-09-25T12:29:42.449Z,10.20
2022-09-25T12:32:20.760Z,11.47
2022-09-25T12:35:15.624Z,10.33
2022-09-25T12:37:53.401Z,9.63
2022-09-25T12:40:32.068Z,9.57
2022-09-25T12:43:19.728Z,8.10
2022-09-25T12:45:56.017Z,7.63
2022-09-25T12:48:35.789Z,6.87
2022-09-25T12:51:11.923Z,6.60
2022-09-25T12:53:48.090Z,7.53
2022-09-25T12:56:25.045Z,7.60
2022-09-25T12:59:14.738Z,7.90
2022-09-25T13:01:54.332Z,8.10
2022-09-25T13:04:38.066Z,7.63
2022-09-25T13:07:19.049Z,8.13
2022-09-25T13:09:54.359Z,7.90
2022-09-25T13:12:36.751Z,7.43
2022-09-25T13:15:19.468Z,7.97
2022-09-25T13:17:48.861Z,7.00
2022-09-25T13:20:48.092Z,6.87
2022-09-25T13:23:31.487Z,7.17
2022-09-25T13:26:10.870Z,7.40
2022-09-25T13:28:48.902Z,7.10
2022-09-25T13:31:24.816Z,7.73
2022-09-25T13:34:03.213Z,7.13
2022-09-25T13:36:45.479Z,6.70
2022-09-25T13:39:46.426Z,6.67
2022-09-25T13:42:30.663Z,6.47
2022-09-25T13:45:33.932Z,6.37
2022-09-25T13:48:10.587Z,6.43
2022-09-25T13:50:51.863Z,6.10
2022-09-25T13:53:32.226Z,6.73
2022-09-25T13:56:30.268Z,6.53
2022-09-25T13:59:24.985Z,6.47
2022-09-25T14:02:00.578Z,6.57
2022-09-25T14:04:32.903Z,6.80
2022-09-25T14:07:32.745Z,6.17
2022-09-25T14:10:07.203Z,5.93
2022-09-25T14:12:48.825Z,5.90
2022-09-25T14:15:32.044Z,5.80
2022-09-25T14:18:04.764Z,5.87
2022-09-25T14:20:45.341Z,5.23
2022-09-25T14:23:16.078Z,4.67
2022-09-25T14:25:49.395Z,4.40
2022-09-25T14:28:26.641Z,4.07
2022-09-25T14:31:21.152Z,3.83
2022-09-25T14:34:14.580Z,3.97
2022-09-25T14:37:08.066Z,3.10
2022-09-25T14:39:50.130Z,2.57
2022-09-25T14:42:47.547Z,2.83
2022-09-25T14:45:44.343Z,2.90
2022-09-25T14:48:26.201Z,2.50
2022-09-25T14:51:21.929Z,2.78
2022-09-25T14:53:59.341Z,2.20
2022-09-25T14:56:36.770Z,2.35
2022-09-25T14:59:14.333Z,3.17
2022-09-25T15:01:47.336Z,2.00
2022-09-25T15:04:26.003Z,1.60
2022-09-25T15:07:00.196Z,1.83
2022-09-25T15:09:38.013Z,2.25
2022-09-25T15:12:18.178Z,2.05
2022-09-25T15:15:02.837Z,1.95
2022-09-25T15:17:31.173Z,2.33
2022-09-25T15:20:00.766Z,1.98
2022-09-25T15:22:32.068Z,1.92
2022-09-25T15:25:03.519Z,2.28
2022-09-25T15:27:31.363Z,2.42
2022-09-25T15:30:00.589Z,2.22
2022-09-25T15:32:31.926Z,2.00
2022-09-25T15:35:07.672Z,2.30
2022-09-25T15:37:34.505Z,2.15
2022-09-25T15:40:18.045Z,2.30
2022-09-25T15:42:46.340Z,2.25
2022-09-25T15:45:36.858Z,2.17
2022-09-25T15:48:16.992Z,2.13
2022-09-25T15:50:45.199Z,2.40
2022-09-25T15:53:21.948Z,2.53
2022-09-25T15:56:00.255Z,2.50
2022-09-25T15:58:27.336Z,2.30
2022-09-25T16:01:18.490Z,2.40
2022-09-25T16:04:06.762Z,2.73
2022-09-25T16:06:43.215Z,2.30
2022-09-25T16:09:20.268Z,2.73
2022-09-25T16:11:48.623Z,2.90
2022-09-25T16:14:22.745Z,2.67
2022-09-25T16:16:50.914Z,2.50
2022-09-25T16:19:32.432Z,3.10
2022-09-25T16:22:03.668Z,2.83
2022-09-25T16:24:31.277Z,2.47
2022-09-25T16:27:01.232Z,2.80
2022-09-25T16:29:30.767Z,3.30
2022-09-25T16:32:02.227Z,2.60
2022-09-25T16:34:32.741Z,3.50
2022-09-25T16:37:03.269Z,3.23
2022-09-25T16:39:32.720Z,3.60
2022-09-25T16:42:27.372Z,3.07
2022-09-25T16:45:03.826Z,3.20
2022-09-25T16:47:31.021Z,3.53
2022-09-25T16:49:58.214Z,3.83
2022-09-25T16:52:28.971Z,4.40
2022-09-25T16:54:57.616Z,3.53
2022-09-25T16:57:32.199Z,3.00
2022-09-25T16:59:59.082Z,3.50
2022-09-25T17:02:33.163Z,3.07
2022-09-25T17:05:02.791Z,2.80
2022-09-25T17:07:29.828Z,3.00
2022-09-25T17:09:56.745Z,4.00
2022-09-25T17:12:27.465Z,3.37
2022-09-25T17:14:55.373Z,3.20
2022-09-25T17:17:22.375Z,3.40
2022-09-25T17:19:50.070Z,4.10
2022-09-25T17:22:17.192Z,3.20
2022-09-25T17:24:44.319Z,3.47
2022-09-25T17:27:16.514Z,4.03
2022-09-25T17:29:46.888Z,3.37
2022-09-25T17:32:17.507Z,3.20
2022-09-25T17:34:46.423Z,3.13
2022-09-25T17:37:13.873Z,3.63
2022-09-25T17:39:41.041Z,4.00
2022-09-25T17:42:10.135Z,3.60
2022-09-25T17:44:37.134Z,3.57
2022-09-25T17:47:06.303Z,3.43
2022-09-25T17:49:33.241Z,3.60
2022-09-25T17:52:00.443Z,4.00
2022-09-25T17:54:29.855Z,3.67
2022-09-25T17:56:56.782Z,3.67
2022-09-25T17:59:23.526Z,3.83
2022-09-25T18:01:51.339Z,4.20
2022-09-25T18:04:22.092Z,3.63
2022-09-25T18:06:49.689Z,3.77
2022-09-25T18:09:16.876Z,4.57
2022-09-25T18:11:44.413Z,3.97
2022-09-25T18:14:12.476Z,4.50
2022-09-25T18:16:41.577Z,4.00
2022-09-25T18:19:33.558Z,4.53
2022-09-25T18:22:17.687Z,4.50
2022-09-25T18:24:45.093Z,4.73
2022-09-25T18:27:13.254Z,4.80
2022-09-25T18:29:40.542Z,5.23
2022-09-25T18:32:08.376Z,5.10
2022-09-25T18:34:35.152Z,5.10
2022-09-25T18:37:03.849Z,5.20
2022-09-25T18:39:30.704Z,5.70
2022-09-25T18:41:57.602Z,6.13
2022-09-25T18:44:24.568Z,5.90
2022-09-25T18:46:53.071Z,5.73
2022-09-25T18:49:19.985Z,6.47
2022-09-25T18:51:47.179Z,6.30
2022-09-25T18:54:16.060Z,8.30
2022-09-25T18:56:43.395Z,23.67
2022-09-25T18:59:10.600Z,15.47
2022-09-25T19:01:39.459Z,9.07
2022-09-25T19:04:07.985Z,7.43
2022-09-25T19:06:35.309Z,6.70
2022-09-25T19:09:04.531Z,6.87
2022-09-25T19:11:33.029Z,7.50
2022-09-25T19:14:01.497Z,7.20
2022-09-25T19:16:30.206Z,7.30
2022-09-25T19:18:58.757Z,7.27
2022-09-25T19:21:30.386Z,7.00
2022-09-25T19:23:57.737Z,7.27
2022-09-25T19:26:28.191Z,6.47
2022-09-25T19:28:56.448Z,6.30
2022-09-25T19:31:25.465Z,5.60
2022-09-25T19:33:53.289Z,6.97
2022-09-25T19:36:24.192Z,5.60
2022-09-25T19:38:51.772Z,6.20
2022-09-25T19:41:20.388Z,7.03
2022-09-25T19:43:47.210Z,6.53
2022-09-25T19:46:19.810Z,6.37
2022-09-25T19:48:48.527Z,6.07
2022-09-25T19:51:17.219Z,6.33
2022-09-25T19:53:52.344Z,6.33
2022-09-25T19:56:20.536Z,5.67
2022-09-25T19:58:49.617Z,6.20
2022-09-25T20:01:20.636Z,5.93
2022-09-25T20:03:51.361Z,5.20
2022-09-25T20:06:21.361Z,5.70
2022-09-25T20:08:48.793Z,6.47
2022-09-25T20:11:18.518Z,6.40
2022-09-25T20:13:46.631Z,6.73
2022-09-25T20:16:19.152Z,6.60
2022-09-25T20:18:48.503Z,7.03
2022-09-25T20:21:17.423Z,7.10
2022-09-25T20:23:44.205Z,7.77
2022-09-25T20:26:13.066Z,7.23
2022-09-25T20:28:40.390Z,7.53
2022-09-25T20:31:10.255Z,7.73
2022-09-25T20:33:38.580Z,7.20
2022-09-25T20:36:07.794Z,7.50
2022-09-25T20:38:36.800Z,6.90
2022-09-25T20:41:05.949Z,7.20
2022-09-25T20:43:33.131Z,25.60
2022-09-25T20:46:03.934Z,10.83
2022-09-25T20:48:31.955Z,7.37
2022-09-25T20:51:00.506Z,6.20
2022-09-25T20:53:27.696Z,6.70
2022-09-25T20:55:54.944Z,6.10
2022-09-25T20:58:21.711Z,5.70
2022-09-25T21:00:49.053Z,6.27
2022-09-25T21:03:15.783Z,5.97
2022-09-25T21:05:46.490Z,6.27
2022-09-25T21:08:14.778Z,6.33
2022-09-25T21:10:41.682Z,6.13
2022-09-25T21:13:08.493Z,6.50
2022-09-25T21:15:35.516Z,6.20
2022-09-25T21:18:02.312Z,6.60
2022-09-25T21:20:29.174Z,7.20
2022-09-25T21:22:55.993Z,6.40
2022-09-25T21:25:24.459Z,6.53
2022-09-25T21:27:51.487Z,6.23
2022-09-25T21:30:18.424Z,6.40
2022-09-25T21:32:45.186Z,6.20
2022-09-25T21:35:12.409Z,6.73
2022-09-25T21:37:39.291Z,6.47
2022-09-25T21:40:07.391Z,6.50
2022-09-25T21:42:35.480Z,6.20
2022-09-25T21:45:05.147Z,6.07
2022-09-25T21:47:32.015Z,6.63
2022-09-25T21:49:58.922Z,5.77
2022-09-25T21:52:26.140Z,7.03
2022-09-25T21:54:54.454Z,6.37
2022-09-25T21:57:22.144Z,5.60
2022-09-25T21:59:50.542Z,5.70
2022-09-25T22:02:17.390Z,5.60
2022-09-25T22:04:44.443Z,5.03
2022-09-25T22:07:11.174Z,5.07
2022-09-25T22:09:38.189Z,5.13
2022-09-25T22:12:05.187Z,5.10
2022-09-25T22:14:32.373Z,5.37
2022-09-25T22:17:00.552Z,5.00
2022-09-25T22:19:29.263Z,4.87
2022-09-25T22:21:57.794Z,5.60
2022-09-25T22:24:25.715Z,5.70
2022-09-25T22:26:54.148Z,4.73
2022-09-25T22:29:21.923Z,5.17
2022-09-25T22:31:48.991Z,4.83
2022-09-25T22:34:19.932Z,4.60
2022-09-25T22:36:47.616Z,4.87
2022-09-25T22:39:16.673Z,4.80
2022-09-25T22:41:43.759Z,5.30
2022-09-25T22:44:10.740Z,5.53
2022-09-25T22:46:37.592Z,7.87
2022-09-25T22:49:04.532Z,4.87
2022-09-25T22:51:32.907Z,4.67
2022-09-25T22:54:00.138Z,4.53
2022-09-25T22:56:29.509Z,5.07
2022-09-25T22:58:59.913Z,4.93
2022-09-25T23:01:29.444Z,5.30
2022-09-25T23:03:58.434Z,5.20
2022-09-25T23:06:26.353Z,5.17
2022-09-25T23:08:57.068Z,5.37
2022-09-25T23:11:24.397Z,5.00
2022-09-25T23:13:58.349Z,5.30
2022-09-25T23:16:26.057Z,5.60
2022-09-25T23:18:53.352Z,5.00
2022-09-25T23:21:20.076Z,5.63
2022-09-25T23:23:47.277Z,5.13
2022-09-25T23:26:15.418Z,5.50
2022-09-25T23:28:42.630Z,5.77
2022-09-25T23:31:12.159Z,6.60
2022-09-25T23:33:41.259Z,6.33
2022-09-25T23:36:10.078Z,5.53
2022-09-25T23:38:37.499Z,5.57
2022-09-25T23:41:14.985Z,5.47
2022-09-25T23:43:42.506Z,5.80
2022-09-25T23:46:09.580Z,5.33
2022-09-25T23:48:37.117Z,5.40
2022-09-25T23:51:04.179Z,5.90
2022-09-25T23:53:31.846Z,6.40
2022-09-25T23:55:58.868Z,5.30
2022-09-25T23:58:28.598Z,5.50
